Time;durP1;ratioP1;P1;durP2;ratioP2;P2;SDS_P1;SDS_P2;PMS_P1;PMS_P2;Temp;Humidity;BMP_temperature;BMP_pressure;BME280_temperature;BME280_humidity;BME280_pressure;Samples;Min_cycle;Max_cycle;Signal;HPM_P1;HPM_P2
2022/06/13 00:00:08;;;;;;;10.43;9.43;;;;;;;16.12;84.30;94866.34;5067622;28;20262;-69
2022/06/13 00:02:35;;;;;;;10.13;9.32;;;;;;;16.12;84.82;94868.16;5057470;28;20240;-70
2022/06/13 00:05:01;;;;;;;9.60;8.70;;;;;;;16.16;84.76;94856.97;5071976;28;20225;-67
2022/06/13 00:07:27;;;;;;;10.35;9.52;;;;;;;16.23;84.23;94871.13;5052410;28;20229;-68
2022/06/13 00:09:53;;;;;;;9.65;8.75;;;;;;;16.21;83.91;94867.03;5065510;28;20228;-66
2022/06/13 00:12:18;;;;;;;9.77;8.98;;;;;;;16.21;83.93;94870.50;5058614;28;20553;-68
2022/06/13 00:14:43;;;;;;;9.45;8.65;;;;;;;16.32;83.13;94871.81;5064361;28;20220;-69
2022/06/13 00:17:09;;;;;;;9.55;8.75;;;;;;;16.27;82.63;94868.91;5064045;28;20225;-69
2022/06/13 00:19:35;;;;;;;9.40;8.60;;;;;;;16.43;81.21;94876.59;5056875;28;20201;-65
2022/06/13 00:22:00;;;;;;;9.68;8.27;;;;;;;16.47;80.95;94883.19;5054939;28;20228;-65
2022/06/13 00:24:25;;;;;;;8.77;7.85;;;;;;;16.45;80.11;94881.72;5057884;28;20229;-68
2022/06/13 00:26:51;;;;;;;12.18;8.18;;;;;;;16.36;80.31;94883.69;5056025;28;20220;-69
2022/06/13 00:29:16;;;;;;;8.98;8.10;;;;;;;16.15;81.20;94879.22;5054019;28;20221;-65
2022/06/13 00:31:41;;;;;;;10.38;9.27;;;;;;;15.99;82.98;94890.06;5053612;28;20751;-70
2022/06/13 00:34:07;;;;;;;9.98;9.07;;;;;;;16.00;83.75;94889.06;5062458;28;20262;-65
2022/06/13 00:36:32;;;;;;;9.82;8.98;;;;;;;15.99;83.70;94880.28;5061498;28;20225;-66
2022/06/13 00:38:58;;;;;;;9.95;9.15;;;;;;;15.99;84.15;94890.88;5065641;28;20578;-71
2022/06/13 00:41:28;;;;;;;9.23;8.52;;;;;;;16.02;84.29;94884.38;5055009;28;20592;-66
2022/06/13 00:43:54;;;;;;;9.95;8.93;;;;;;;16.23;82.67;94881.75;5061656;28;20225;-71
2022/06/13 00:46:27;;;;;;;9.63;8.75;;;;;;;16.27;81.88;94882.16;5051454;28;20294;-70
2022/06/13 00:49:00;;;;;;;11.57;9.35;;;;;;;16.08;82.60;94889.75;5057556;28;20221;-67
2022/06/13 00:51:27;;;;;;;10.38;9.18;;;;;;;15.96;84.06;94885.97;5048693;28;20229;-65
2022/06/13 00:53:53;;;;;;;9.05;8.35;;;;;;;16.05;83.61;94884.81;5052142;28;20225;-69
2022/06/13 00:56:23;;;;;;;9.75;8.85;;;;;;;16.17;82.24;94882.50;5052670;28;20249;-68
2022/06/13 00:58:54;;;;;;;9.73;8.77;;;;;;;16.19;81.22;94877.81;5053604;28;20264;-69
2022/06/13 01:01:22;;;;;;;10.13;8.88;;;;;;;16.03;82.07;94878.06;5049927;28;20202;-69
2022/06/13 01:03:48;;;;;;;9.40;8.60;;;;;;;15.96;82.73;94882.47;5059968;28;20226;-65
2022/06/13 01:06:14;;;;;;;8.93;8.02;;;;;;;15.96;81.74;94880.66;5057020;28;20236;-69
2022/06/13 01:08:40;;;;;;;8.68;7.97;;;;;;;15.88;82.14;94868.34;5059154;28;20236;-67
2022/06/13 01:11:18;;;;;;;8.85;7.57;;;;;;;15.99;81.40;94871.50;5063991;28;20221;-68
2022/06/13 01:14:27;;;;;;;8.88;8.07;;;;;;;16.18;79.78;94870.88;5053729;28;20275;-65
2022/06/13 01:17:08;;;;;;;8.48;7.13;;;;;;;16.12;79.67;94866.34;5079010;28;20277;-66
2022/06/13 01:20:07;;;;;;;9.43;8.38;;;;;;;16.09;79.92;94870.19;5035726;28;20205;-64
2022/06/13 01:22:51;;;;;;;9.40;7.57;;;;;;;15.93;80.96;94869.59;5038831;28;20233;-66
2022/06/13 01:25:37;;;;;;;13.75;7.97;;;;;;;15.83;82.47;94869.91;5038696;28;20700;-69
2022/06/13 01:28:21;;;;;;;8.77;8.15;;;;;;;15.84;82.73;94866.25;5035872;28;20227;-65
2022/06/13 01:30:49;;;;;;;8.85;8.05;;;;;;;15.87;81.76;94863.22;5068024;28;20229;-69
2022/06/13 01:33:24;;;;;;;9.13;8.32;;;;;;;15.56;83.19;94856.34;5071645;28;20231;-69
2022/06/13 01:36:21;;;;;;;9.07;8.25;;;;;;;15.52;84.25;94865.66;5055854;28;20232;-63
2022/06/13 01:39:18;;;;;;;9.95;8.77;;;;;;;15.58;84.26;94866.72;5039073;28;20286;-64
2022/06/13 01:41:49;;;;;;;9.02;8.32;;;;;;;15.64;84.11;94873.97;5050695;28;20262;-68
2022/06/13 01:44:59;;;;;;;10.27;8.70;;;;;;;15.64;83.89;94872.13;5062439;28;20326;-68
2022/06/13 01:47:36;;;;;;;10.73;8.93;;;;;;;15.46;84.58;94876.19;5084346;28;20239;-69
2022/06/13 01:50:07;;;;;;;9.05;8.23;;;;;;;15.52;84.74;94881.56;5048788;28;20246;-67
2022/06/13 01:52:45;;;;;;;9.35;8.43;;;;;;;15.55;84.64;94877.72;5019371;28;20214;-66
2022/06/13 01:55:30;;;;;;;9.38;8.57;;;;;;;15.58;84.19;94877.34;5050265;28;20224;-67
2022/06/13 01:58:19;;;;;;;9.63;8.73;;;;;;;15.68;83.72;94877.06;5055468;28;20312;-68
2022/06/13 02:01:01;;;;;;;10.95;9.05;;;;;;;15.86;82.08;94880.97;5048483;28;20352;-64
2022/06/13 02:03:33;;;;;;;10.02;9.23;;;;;;;15.83;81.88;94885.81;5032813;28;20281;-68
2022/06/13 02:06:27;;;;;;;10.52;9.20;;;;;;;15.71;82.55;94889.94;5038242;28;20567;-67
2022/06/13 02:09:02;;;;;;;10.00;9.05;;;;;;;15.64;83.26;94877.44;5035938;28;20268;-68
2022/06/13 02:11:34;;;;;;;9.18;8.40;;;;;;;15.61;83.25;94887.56;5036646;28;20221;-69
2022/06/13 02:14:07;;;;;;;10.85;8.13;;;;;;;15.53;83.63;94883.22;5043286;28;20226;-65
2022/06/13 02:17:00;;;;;;;10.00;9.00;;;;;;;15.53;83.82;94888.50;5032548;28;20208;-66
2022/06/13 02:19:57;;;;;;;9.60;8.80;;;;;;;15.59;83.42;94894.91;5040595;28;20266;-68
2022/06/13 02:22:42;;;;;;;10.75;8.20;;;;;;;15.58;82.81;94887.94;5035898;28;20238;-66
2022/06/13 02:25:43;;;;;;;13.80;9.30;;;;;;;15.58;82.59;94887.94;5036333;28;20251;-67
2022/06/13 02:28:28;;;;;;;10.68;7.90;;;;;;;15.47;83.43;94888.41;5042277;28;20233;-69
2022/06/13 02:31:01;;;;;;;9.55;8.45;;;;;;;15.46;83.38;94886.78;5041458;28;20442;-66
2022/06/13 02:33:29;;;;;;;9.15;8.20;;;;;;;15.43;83.44;94890.63;5030920;28;20616;-65
2022/06/13 02:36:02;;;;;;;9.38;8.43;;;;;;;15.38;83.84;94887.69;5041362;28;20225;-65
2022/06/13 02:38:41;;;;;;;11.02;9.05;;;;;;;15.38;84.04;94888.50;5044594;28;20287;-69
2022/06/13 02:41:12;;;;;;;9.05;8.15;;;;;;;15.29;84.22;94884.34;5039849;28;20233;-69
2022/06/13 02:43:52;;;;;;;9.70;8.15;;;;;;;15.24;84.73;94884.06;5038006;28;20246;-69
2022/06/13 02:46:28;;;;;;;8.98;8.07;;;;;;;15.32;84.29;94880.50;5035924;28;20198;-67
2022/06/13 02:49:01;;;;;;;8.40;7.60;;;;;;;15.42;83.93;94883.66;5038907;28;20217;-67
2022/06/13 02:51:35;;;;;;;9.50;7.72;;;;;;;15.57;82.71;94881.00;5028377;28;20308;-67
2022/06/13 02:54:08;;;;;;;8.85;8.05;;;;;;;15.73;81.66;94895.91;5032290;28;20267;-63
2022/06/13 02:59:42;;;;;;;9.50;8.60;;;;;;;15.75;80.96;94892.06;5038348;28;20418;-67
2022/06/13 03:02:11;;;;;;;8.32;7.57;;;;;;;15.72;81.01;94897.72;5030779;28;20236;-63
2022/06/13 03:04:42;;;;;;;9.32;8.43;;;;;;;15.64;81.71;94897.81;5043143;28;20258;-65
2022/06/13 03:07:26;;;;;;;8.35;7.65;;;;;;;15.63;81.56;94902.28;5048360;28;20210;-63
2022/06/13 03:10:16;;;;;;;8.68;7.82;;;;;;;15.72;80.76;94911.00;5048152;28;20295;-69
2022/06/13 03:12:58;;;;;;;8.30;7.57;;;;;;;15.61;81.17;94906.97;5055300;28;20224;-69
2022/06/13 03:15:29;;;;;;;9.45;8.60;;;;;;;15.58;81.58;94904.69;5052866;28;20256;-63
2022/06/13 03:18:08;;;;;;;12.38;8.98;;;;;;;15.56;82.49;94900.56;5040575;28;20229;-69
2022/06/13 03:21:00;;;;;;;9.15;8.07;;;;;;;15.62;82.22;94911.25;5033687;28;20243;-67
2022/06/13 03:23:35;;;;;;;9.00;8.20;;;;;;;15.35;83.53;94907.44;5062056;28;20287;-66
2022/06/13 03:26:05;;;;;;;9.73;8.73;;;;;;;15.43;84.04;94914.47;5061450;28;20225;-64
2022/06/13 03:28:49;;;;;;;13.93;9.18;;;;;;;15.55;83.60;94909.50;5052166;28;20296;-65
2022/06/13 03:31:20;;;;;;;8.95;8.18;;;;;;;15.70;82.62;94912.19;5065125;28;20209;-68
2022/06/13 03:33:52;;;;;;;11.10;8.65;;;;;;;15.57;82.94;94912.81;5060255;28;20319;-67
2022/06/13 03:36:34;;;;;;;9.23;8.45;;;;;;;15.30;84.49;94923.06;5057281;28;20310;-65
2022/06/13 03:39:28;;;;;;;9.13;8.43;;;;;;;15.50;83.75;94925.13;5054172;28;20241;-67
2022/06/13 03:42:17;;;;;;;9.27;8.38;;;;;;;15.46;83.64;94921.22;5053732;28;20225;-65
2022/06/13 03:45:06;;;;;;;9.07;8.38;;;;;;;15.83;81.92;94922.94;5058602;28;20289;-67
2022/06/13 03:47:46;;;;;;;9.45;8.45;;;;;;;15.92;81.32;94921.81;5034761;28;20217;-66
2022/06/13 03:50:27;;;;;;;9.88;8.55;;;;;;;16.00;80.74;94928.84;5057779;28;20271;-66
2022/06/13 03:53:00;;;;;;;9.57;8.68;;;;;;;16.06;80.91;94928.91;5072178;28;20239;-65
2022/06/13 03:55:35;;;;;;;9.25;8.35;;;;;;;16.11;80.97;94936.28;5059782;28;20232;-65
2022/06/13 03:58:30;;;;;;;9.55;8.55;;;;;;;16.05;81.67;94934.41;5067834;28;20243;-67
2022/06/13 04:01:25;;;;;;;11.75;9.30;;;;;;;16.35;80.39;94936.94;5048201;28;20229;-67
2022/06/13 04:03:50;;;;;;;10.27;9.32;;;;;;;16.45;79.68;94926.84;5039034;28;20324;-64
2022/06/13 04:06:37;;;;;;;10.40;9.48;;;;;;;16.49;79.97;94931.59;5053522;28;20427;-66
2022/06/13 04:09:07;;;;;;;10.32;9.40;;;;;;;16.56;79.49;94928.97;5053056;28;20342;-65
2022/06/13 04:11:33;;;;;;;11.85;10.07;;;;;;;16.54;80.14;94936.31;5040000;28;20232;-68
2022/06/13 04:14:25;;;;;;;10.07;9.25;;;;;;;16.57;80.08;94938.56;5052646;28;20294;-66
2022/06/13 04:17:15;;;;;;;12.60;11.27;;;;;;;16.56;80.98;94936.94;5041594;28;20643;-66
2022/06/13 04:19:58;;;;;;;11.77;10.75;;;;;;;16.56;81.43;94926.31;5052660;28;20208;-66
2022/06/13 04:22:48;;;;;;;11.45;10.38;;;;;;;16.61;81.47;94931.88;5054272;28;20323;-68
2022/06/13 04:25:33;;;;;;;11.70;10.68;;;;;;;16.63;81.65;94929.06;5043015;28;20245;-65
2022/06/13 04:28:15;;;;;;;11.00;10.00;;;;;;;16.64;81.58;94934.16;5055794;28;20280;-67
2022/06/13 04:30:43;;;;;;;12.25;11.18;;;;;;;16.81;81.34;94928.59;5042767;28;20240;-67
2022/06/13 04:33:34;;;;;;;12.20;11.10;;;;;;;16.74;81.54;94926.69;5036259;28;20224;-63
2022/06/13 04:36:01;;;;;;;12.48;11.40;;;;;;;16.72;82.05;94923.41;5034253;28;20225;-68
2022/06/13 04:38:27;;;;;;;12.05;10.95;;;;;;;16.83;81.91;94923.94;5052641;28;20233;-65
2022/06/13 04:41:01;;;;;;;13.02;11.85;;;;;;;16.84;82.08;94921.09;5044245;28;20217;-65
2022/06/13 04:43:33;;;;;;;12.38;11.32;;;;;;;16.80;82.30;94917.16;5057550;28;20235;-66
2022/06/13 04:46:05;;;;;;;12.73;11.57;;;;;;;16.83;82.41;94924.75;5062546;28;20255;-65
2022/06/13 04:48:31;;;;;;;12.57;11.57;;;;;;;16.90;82.12;94919.50;5067224;28;20217;-65
2022/06/13 04:51:02;;;;;;;12.98;11.98;;;;;;;16.95;81.78;94922.41;5050784;28;20217;-66
2022/06/13 04:53:39;;;;;;;13.45;12.23;;;;;;;17.17;81.38;94923.16;5051426;28;20257;-66
2022/06/13 04:56:05;;;;;;;12.73;11.68;;;;;;;17.14;81.44;94913.72;5052255;28;20213;-68
2022/06/13 04:58:37;;;;;;;13.20;11.95;;;;;;;17.09;81.61;94913.50;5056369;28;20215;-67
2022/06/13 05:01:21;;;;;;;13.85;12.48;;;;;;;17.12;81.78;94915.75;5070901;28;20197;-68
2022/06/13 05:03:48;;;;;;;12.57;11.40;;;;;;;17.15;81.62;94912.69;5060594;28;20221;-67
2022/06/13 05:06:37;;;;;;;13.30;11.98;;;;;;;17.13;81.58;94916.56;5053434;28;20221;-67
2022/06/13 05:09:08;;;;;;;13.15;11.88;;;;;;;17.20;81.27;94909.47;5057479;28;20265;-67
2022/06/13 05:12:06;;;;;;;12.90;11.80;;;;;;;17.30;80.81;94911.78;5055881;28;20263;-65
2022/06/13 05:14:51;;;;;;;13.75;12.40;;;;;;;17.31;80.46;94916.88;5060408;28;20220;-63
2022/06/13 05:17:54;;;;;;;13.10;11.90;;;;;;;17.28;80.47;94917.28;5064960;28;20259;-65
2022/06/13 05:20:54;;;;;;;13.10;11.80;;;;;;;17.24;80.97;94917.88;5057163;28;20371;-67
2022/06/13 05:23:34;;;;;;;12.80;11.68;;;;;;;17.19;81.43;94915.81;5052720;28;20238;-64
2022/06/13 05:26:00;;;;;;;12.43;11.40;;;;;;;17.19;81.39;94921.13;5069008;28;20311;-66
2022/06/13 05:28:29;;;;;;;13.68;12.38;;;;;;;17.25;81.40;94916.88;5061840;28;20211;-67
2022/06/13 05:30:58;;;;;;;13.52;12.32;;;;;;;17.31;81.44;94916.88;5069259;28;20228;-69
2022/06/13 05:33:32;;;;;;;13.55;12.35;;;;;;;17.44;80.97;94918.81;5061066;28;20294;-64
2022/06/13 05:36:01;;;;;;;14.23;12.93;;;;;;;17.51;80.60;94916.16;5055437;28;20688;-72
2022/06/13 05:38:31;;;;;;;13.32;12.20;;;;;;;17.57;80.56;94926.84;5055984;28;20220;-68
2022/06/13 05:40:56;;;;;;;13.98;12.68;;;;;;;17.65;80.11;94915.22;5055864;28;20220;-65
2022/06/13 05:43:22;;;;;;;13.88;12.50;;;;;;;17.68;79.72;94917.50;5070544;28;20236;-63
2022/06/13 05:45:47;;;;;;;13.45;12.25;;;;;;;17.66;79.87;94918.72;5057963;28;20228;-68
2022/06/13 05:48:15;;;;;;;15.52;13.93;;;;;;;17.70;79.96;94915.47;5058770;28;20226;-62
2022/06/13 05:50:42;;;;;;;13.65;12.30;;;;;;;17.78;79.80;94917.94;5053712;28;20217;-67
2022/06/13 05:53:17;;;;;;;13.63;12.52;;;;;;;17.85;80.01;94920.66;5068217;28;20220;-67
2022/06/13 05:55:44;;;;;;;13.80;12.60;;;;;;;17.95;80.06;94920.28;5058911;28;20247;-67
2022/06/13 05:58:15;;;;;;;15.00;13.43;;;;;;;17.97;79.91;94911.09;5057023;28;20197;-68
2022/06/13 06:00:49;;;;;;;14.73;13.50;;;;;;;18.07;79.40;94916.03;5059402;28;20222;-67
2022/06/13 06:03:16;;;;;;;15.60;14.05;;;;;;;18.05;79.20;94912.75;5053845;28;20255;-68
2022/06/13 06:05:42;;;;;;;15.63;14.32;;;;;;;18.11;79.03;94921.78;5059945;28;20220;-70
2022/06/13 06:08:33;;;;;;;12.15;10.80;;;;;;;18.18;78.54;94912.78;5065483;28;20225;-69
2022/06/13 06:10:59;;;;;;;11.52;10.40;;;;;;;18.14;77.46;94916.03;5047162;28;20216;-66
2022/06/13 06:13:26;;;;;;;11.93;10.93;;;;;;;18.27;77.50;94924.06;5052800;28;20240;-62
2022/06/13 06:15:53;;;;;;;13.27;11.98;;;;;;;18.23;77.28;94928.97;5043861;28;20232;-62
2022/06/13 06:18:20;;;;;;;11.77;10.77;;;;;;;18.29;77.33;94928.16;5047918;28;20294;-61
2022/06/13 06:20:45;;;;;;;12.13;10.75;;;;;;;18.38;76.46;94925.31;5063862;28;20640;-64
2022/06/13 06:23:12;;;;;;;12.38;11.32;;;;;;;18.40;75.87;94929.41;5039657;28;20228;-63
2022/06/13 06:25:38;;;;;;;11.73;10.63;;;;;;;18.27;76.53;94932.03;5030142;28;20270;-63
2022/06/13 06:28:05;;;;;;;11.05;10.15;;;;;;;18.26;76.85;94925.09;5045401;28;20201;-63
2022/06/13 06:30:31;;;;;;;11.90;10.85;;;;;;;18.42;76.86;94927.38;5042936;28;20809;-68
2022/06/13 06:32:58;;;;;;;12.13;10.95;;;;;;;18.55;76.46;94928.41;5035800;28;20224;-68
2022/06/13 06:35:26;;;;;;;11.10;10.20;;;;;;;18.56;76.55;94930.06;5059008;28;20248;-69
2022/06/13 06:37:53;;;;;;;11.95;10.85;;;;;;;18.52;77.26;94934.94;5035871;28;20235;-69
2022/06/13 06:40:20;;;;;;;10.93;9.90;;;;;;;18.67;76.81;94930.25;5037456;28;20239;-66
2022/06/13 06:42:46;;;;;;;11.25;9.85;;;;;;;18.80;75.45;94934.00;5044152;28;20241;-69
2022/06/13 06:45:12;;;;;;;10.70;9.65;;;;;;;18.81;74.76;94940.94;5045231;28;20303;-71
2022/06/13 06:47:41;;;;;;;11.18;10.05;;;;;;;18.80;74.92;94937.47;5068493;28;20256;-62
2022/06/13 06:50:12;;;;;;;10.98;10.07;;;;;;;18.78;74.69;94939.50;5058813;28;20221;-63
2022/06/13 06:52:38;;;;;;;9.80;8.80;;;;;;;18.75;73.14;94931.94;5069169;28;20213;-73
2022/06/13 07:00:32;;;;;;;10.00;9.00;;;;;;;18.92;73.55;94935.84;5058210;28;20282;-69
2022/06/13 07:02:57;;;;;;;9.15;8.43;;;;;;;19.04;73.70;94933.38;5058194;28;20221;-68
2022/06/13 07:05:23;;;;;;;8.95;8.25;;;;;;;19.11;73.17;94922.69;5060061;28;20305;-67
2022/06/13 07:07:49;;;;;;;8.30;7.60;;;;;;;19.07;73.29;94927.63;5068557;28;20197;-68
2022/06/13 07:10:14;;;;;;;8.82;8.13;;;;;;;19.24;72.62;94921.84;5055353;28;20201;-71
2022/06/13 07:12:43;;;;;;;7.38;6.78;;;;;;;19.32;71.41;94922.44;5060038;28;20270;-64
2022/06/13 07:15:13;;;;;;;9.05;7.57;;;;;;;19.46;70.09;94925.94;5057519;28;20208;-64
2022/06/13 07:17:39;;;;;;;7.47;6.90;;;;;;;19.35;70.38;94923.88;5074879;28;20224;-66
2022/06/13 07:20:05;;;;;;;8.10;7.40;;;;;;;19.43;69.06;94922.84;5065106;28;20237;-61
2022/06/13 07:22:30;;;;;;;9.48;8.02;;;;;;;19.49;69.40;94925.50;5059060;28;20320;-67
2022/06/13 07:24:56;;;;;;;8.48;7.70;;;;;;;19.56;69.62;94925.47;5052629;28;20233;-67
2022/06/13 07:27:21;;;;;;;7.90;7.20;;;;;;;19.54;68.79;94930.19;5053322;28;20254;-67
2022/06/13 07:29:47;;;;;;;7.78;7.18;;;;;;;19.58;69.21;94926.09;5052797;28;20225;-68
2022/06/13 07:32:19;;;;;;;8.30;7.50;;;;;;;19.51;69.85;94927.94;5055130;28;20761;-66
2022/06/13 07:34:50;;;;;;;8.02;7.43;;;;;;;19.66;69.18;94930.38;5055037;28;20240;-63
2022/06/13 07:38:16;;;;;;;6.70;6.20;;;;;;;19.77;67.68;94930.56;5062899;28;20285;-67
2022/06/13 07:40:06;;;;;;;6.80;6.20;;;;;;;19.86;67.43;94935.66;5055727;28;20231;-68
2022/06/13 07:42:39;;;;;;;7.65;6.85;;;;;;;19.82;67.84;94928.09;5058776;28;20317;-63
2022/06/13 07:45:05;;;;;;;7.07;6.47;;;;;;;20.02;68.37;94932.50;5067757;28;20225;-62
2022/06/13 07:47:31;;;;;;;6.60;6.10;;;;;;;20.18;66.95;94939.22;5052012;28;21253;-67
2022/06/13 07:50:00;;;;;;;9.93;6.35;;;;;;;19.95;65.15;94935.22;5059469;28;20686;-65
2022/06/13 07:52:26;;;;;;;6.50;5.80;;;;;;;20.03;65.28;94931.50;5053434;28;20205;-68
2022/06/13 07:54:51;;;;;;;6.10;5.53;;;;;;;20.11;65.59;94936.59;5059098;28;20221;-67
2022/06/13 07:57:18;;;;;;;8.13;6.20;;;;;;;20.24;66.37;94933.84;5040840;28;20229;-67
2022/06/13 07:59:44;;;;;;;6.75;6.13;;;;;;;20.31;66.14;94935.66;5057034;28;20327;-66
2022/06/13 08:02:16;;;;;;;5.75;5.32;;;;;;;20.28;64.72;94932.38;5053660;28;20224;-68
2022/06/13 08:04:42;;;;;;;5.35;4.95;;;;;;;20.26;63.68;94930.97;5055997;28;20226;-66
2022/06/13 08:07:10;;;;;;;5.72;5.22;;;;;;;20.31;64.39;94931.13;5054700;28;20192;-64
2022/06/13 08:09:35;;;;;;;6.25;5.65;;;;;;;20.51;63.56;94932.91;5053841;28;20225;-67
2022/06/13 08:12:01;;;;;;;6.50;5.90;;;;;;;20.73;64.42;94928.84;5058395;28;20225;-65
2022/06/13 08:14:26;;;;;;;6.63;5.95;;;;;;;20.56;64.86;94933.91;5059203;28;20225;-67
2022/06/13 08:16:53;;;;;;;7.15;6.15;;;;;;;20.48;62.38;94928.78;5050699;28;20221;-62
2022/06/13 08:19:18;;;;;;;6.00;5.53;;;;;;;20.70;62.60;94943.47;5056716;28;20201;-64
2022/06/13 08:21:44;;;;;;;7.53;5.90;;;;;;;20.90;63.11;94937.13;5054247;28;20245;-65
2022/06/13 08:24:12;;;;;;;6.30;5.28;;;;;;;21.11;61.40;94935.94;5068979;28;20235;-69
2022/06/13 08:26:38;;;;;;;5.85;5.35;;;;;;;21.15;60.32;94937.97;5059922;28;20300;-70
2022/06/13 08:29:04;;;;;;;6.47;5.15;;;;;;;21.31;60.44;94938.44;5063430;28;20280;-67
2022/06/13 08:31:30;;;;;;;5.82;5.32;;;;;;;21.49;58.92;94938.50;5058718;28;20408;-69
2022/06/13 08:33:56;;;;;;;4.85;4.38;;;;;;;21.58;58.29;94937.16;5050580;28;20538;-70
2022/06/13 08:36:22;;;;;;;5.15;4.47;;;;;;;21.61;58.82;94932.41;5058312;28;20228;-68
2022/06/13 08:38:47;;;;;;;8.65;5.25;;;;;;;21.88;57.79;94939.09;5052180;28;20294;-69
2022/06/13 08:41:15;;;;;;;5.90;5.38;;;;;;;22.15;57.13;94939.59;5058049;28;20770;-64
2022/06/13 08:43:53;;;;;;;5.60;5.03;;;;;;;22.33;57.44;94941.47;5055311;28;20216;-66
2022/06/13 08:46:42;;;;;;;4.95;4.55;;;;;;;22.24;57.17;94940.16;5059465;28;20208;-63
2022/06/13 08:49:17;;;;;;;4.82;4.32;;;;;;;22.40;55.85;94942.19;5060083;28;20227;-69
2022/06/13 08:51:49;;;;;;;4.82;3.85;;;;;;;22.41;56.27;94934.97;5060436;28;20232;-65
2022/06/13 08:54:24;;;;;;;4.93;4.53;;;;;;;22.39;56.32;94937.06;5075163;28;20231;-66
2022/06/13 08:56:51;;;;;;;5.68;4.20;;;;;;;22.44;56.13;94931.84;5047928;28;20237;-65
2022/06/13 08:59:34;;;;;;;6.53;4.47;;;;;;;22.54;55.46;94936.66;5036682;28;20691;-70
2022/06/13 09:02:15;;;;;;;4.75;4.38;;;;;;;22.71;53.64;94931.44;5046747;28;20229;-65
2022/06/13 09:04:50;;;;;;;4.32;4.00;;;;;;;22.64;54.94;94931.53;5057348;28;20204;-64
2022/06/13 09:07:24;;;;;;;3.78;3.47;;;;;;;22.90;53.71;94925.75;5054321;28;20224;-66
2022/06/13 09:09:57;;;;;;;4.40;3.97;;;;;;;22.97;52.67;94922.22;5059762;28;20239;-71
2022/06/13 09:12:47;;;;;;;4.68;4.25;;;;;;;23.15;52.20;94930.16;5053653;28;20217;-65
2022/06/13 09:15:21;;;;;;;5.30;4.80;;;;;;;23.19;52.12;94927.81;5073355;28;20224;-69
2022/06/13 09:18:13;;;;;;;4.72;4.32;;;;;;;23.11;51.82;94920.94;5057974;28;20760;-66
2022/06/13 09:20:53;;;;;;;7.43;4.18;;;;;;;22.84;52.99;94929.38;5077136;28;20300;-66
2022/06/13 09:23:34;;;;;;;5.65;4.40;;;;;;;22.89;53.10;94929.50;5055633;28;20271;-64
2022/06/13 09:26:22;;;;;;;6.00;4.55;;;;;;;22.97;53.89;94922.22;5060930;28;20307;-69
2022/06/13 09:29:06;;;;;;;5.28;3.97;;;;;;;22.75;53.82;94919.22;5062059;28;20197;-69
2022/06/13 09:31:44;;;;;;;5.25;4.78;;;;;;;22.82;54.13;94923.41;5061987;28;20214;-66
2022/06/13 09:34:17;;;;;;;5.07;4.00;;;;;;;23.06;53.04;94918.13;5058482;28;20200;-67
2022/06/13 09:36:56;;;;;;;4.60;4.20;;;;;;;23.10;52.96;94922.81;5092159;28;20231;-66
2022/06/13 09:39:22;;;;;;;5.20;4.70;;;;;;;23.31;52.57;94915.25;5058099;28;20370;-66
2022/06/13 09:41:59;;;;;;;6.97;5.25;;;;;;;23.60;51.93;94916.13;5055450;28;20233;-65
2022/06/13 09:44:46;;;;;;;7.00;4.88;;;;;;;23.79;49.69;94914.19;5053791;28;20236;-67
2022/06/13 09:47:18;;;;;;;4.70;4.40;;;;;;;23.64;49.90;94909.25;5053763;28;20312;-64
2022/06/13 09:50:01;;;;;;;5.53;4.72;;;;;;;23.48;52.97;94905.41;5060847;28;20205;-65
2022/06/13 09:52:44;;;;;;;5.28;4.72;;;;;;;23.53;52.77;94899.34;5055584;28;20548;-65
2022/06/13 09:55:19;;;;;;;4.68;4.13;;;;;;;23.83;50.78;94909.13;5070943;28;20304;-65
2022/06/13 09:58:03;;;;;;;5.80;4.20;;;;;;;24.21;51.58;94908.56;5059394;28;20235;-65
2022/06/13 10:00:43;;;;;;;4.47;4.05;;;;;;;24.28;50.68;94909.22;5076786;28;20258;-66
2022/06/13 10:03:09;;;;;;;5.03;4.03;;;;;;;24.07;49.08;94908.00;5055239;28;20370;-64
2022/06/13 10:05:34;;;;;;;4.90;4.20;;;;;;;24.05;50.78;94904.75;5060523;28;20217;-63
2022/06/13 10:08:29;;;;;;;4.45;4.13;;;;;;;24.18;50.34;94907.16;5052768;28;20492;-65
2022/06/13 10:11:05;;;;;;;4.63;4.32;;;;;;;23.95;49.44;94901.84;5068980;28;20230;-64
2022/06/13 10:13:30;;;;;;;4.60;4.30;;;;;;;24.03;49.53;94908.72;5055194;28;20369;-64
2022/06/13 10:16:12;;;;;;;4.82;4.43;;;;;;;24.32;47.74;94904.19;5051795;28;20200;-65
2022/06/13 10:18:55;;;;;;;4.53;4.18;;;;;;;24.73;46.93;94903.09;5053359;28;20231;-65
2022/06/13 10:21:41;;;;;;;5.28;3.78;;;;;;;25.10;47.09;94897.22;5053447;28;20359;-65
2022/06/13 10:24:16;;;;;;;5.60;4.40;;;;;;;25.35;47.03;94894.13;5053784;28;20275;-66
2022/06/13 10:27:06;;;;;;;6.05;4.70;;;;;;;25.39;45.82;94886.38;5059781;28;20225;-65
2022/06/13 10:30:07;;;;;;;4.90;4.40;;;;;;;25.00;45.33;94897.88;5055706;28;20218;-65
2022/06/13 10:32:56;;;;;;;6.75;6.07;;;;;;;24.91;46.64;94893.94;5054971;28;20233;-64
2022/06/13 10:35:25;;;;;;;5.65;5.07;;;;;;;25.21;44.88;94885.59;5048580;28;20229;-65
2022/06/13 10:37:56;;;;;;;5.65;4.88;;;;;;;25.72;44.28;94882.78;5052925;28;20232;-66
2022/06/13 10:40:24;;;;;;;6.03;4.72;;;;;;;26.02;44.75;94877.00;5057888;28;20212;-66
2022/06/13 10:42:50;;;;;;;5.38;4.88;;;;;;;26.21;44.39;94874.78;5061340;28;20236;-65
2022/06/13 10:45:17;;;;;;;5.38;4.65;;;;;;;25.87;44.38;94871.41;5055174;28;20236;-68
2022/06/13 10:48:11;;;;;;;5.30;4.80;;;;;;;25.92;44.31;94866.91;5061046;28;20218;-66
2022/06/13 10:50:44;;;;;;;5.10;4.60;;;;;;;25.83;44.10;94863.00;5033825;28;20283;-68
2022/06/13 10:53:36;;;;;;;6.10;4.85;;;;;;;25.93;44.17;94863.16;5050810;28;20226;-69
2022/06/13 10:56:04;;;;;;;4.85;4.45;;;;;;;25.87;44.16;94856.06;5016673;28;20218;-67
2022/06/13 10:58:38;;;;;;;6.07;5.53;;;;;;;26.08;43.55;94857.13;5047237;28;20244;-69
2022/06/13 11:01:13;;;;;;;5.80;5.30;;;;;;;26.13;41.77;94848.28;4996731;28;20218;-71
2022/06/13 11:03:57;;;;;;;4.85;4.45;;;;;;;26.24;42.48;94841.94;5006093;28;20214;-67
2022/06/13 11:06:29;;;;;;;5.75;5.25;;;;;;;26.51;43.57;94844.63;5032924;28;20221;-68
2022/06/13 11:09:05;;;;;;;6.40;5.82;;;;;;;26.49;43.42;94840.53;5015777;28;20385;-69
2022/06/13 11:11:37;;;;;;;5.70;4.50;;;;;;;26.50;42.40;94842.19;5013644;28;20239;-72
2022/06/13 11:14:03;;;;;;;5.38;4.95;;;;;;;26.66;42.13;94835.88;5018192;28;20230;-70
2022/06/13 11:22:40;;;;;;;7.45;5.35;;;;;;;27.09;39.61;94814.34;5031873;28;20301;-69
2022/06/13 11:25:14;;;;;;;6.70;6.00;;;;;;;27.31;39.00;94817.75;5040955;28;20302;-63
2022/06/13 11:27:41;;;;;;;5.53;5.03;;;;;;;27.18;38.68;94808.22;5040108;28;20741;-66
2022/06/13 11:30:25;;;;;;;5.68;4.95;;;;;;;27.66;39.20;94810.91;5060583;28;20228;-64
2022/06/13 11:33:13;;;;;;;5.47;5.00;;;;;;;27.92;39.51;94803.72;5051610;28;20232;-70
2022/06/13 11:35:54;;;;;;;5.15;4.72;;;;;;;28.07;37.51;94800.28;5066881;28;20225;-69
2022/06/13 11:38:33;;;;;;;5.35;4.95;;;;;;;27.81;36.95;94796.69;5055830;28;20596;-65
2022/06/13 11:41:18;;;;;;;6.20;5.60;;;;;;;27.98;35.72;94801.84;5057211;28;20213;-66
2022/06/13 11:43:52;;;;;;;5.78;5.13;;;;;;;27.78;36.66;94791.78;5064413;28;20219;-65
2022/06/13 11:46:27;;;;;;;6.13;5.60;;;;;;;28.08;35.73;94796.47;5055039;28;20784;-68
2022/06/13 11:48:55;;;;;;;5.88;5.28;;;;;;;27.96;35.74;94783.22;5068073;28;20220;-72
2022/06/13 11:51:28;;;;;;;5.72;5.28;;;;;;;28.18;37.13;94788.41;5054821;28;20221;-68
2022/06/13 11:53:57;;;;;;;5.75;5.22;;;;;;;28.66;37.44;94782.78;5052944;28;20209;-67
2022/06/13 11:56:30;;;;;;;9.50;5.43;;;;;;;28.65;35.88;94786.56;5060077;28;20294;-68
2022/06/13 11:58:59;;;;;;;5.90;5.38;;;;;;;28.04;36.36;94781.84;5063334;28;20530;-64
2022/06/13 12:01:38;;;;;;;7.57;5.45;;;;;;;28.01;37.90;94790.50;5094056;28;20205;-65
2022/06/13 12:04:12;;;;;;;6.70;5.45;;;;;;;28.31;36.35;94789.78;5052435;28;20340;-64
2022/06/13 12:06:58;;;;;;;6.10;5.60;;;;;;;28.90;36.55;94781.16;5050448;28;20278;-70
2022/06/13 12:09:31;;;;;;;5.90;5.20;;;;;;;29.27;35.52;94771.91;5055991;28;20295;-64
2022/06/13 12:12:06;;;;;;;5.35;4.95;;;;;;;29.32;34.63;94761.03;5047174;28;20290;-63
2022/06/13 12:14:41;;;;;;;6.40;5.47;;;;;;;29.51;33.71;94769.38;5055378;28;20659;-65
2022/06/13 12:17:17;;;;;;;5.78;5.20;;;;;;;29.20;34.88;94764.06;5073900;28;20225;-68